createdAt,value
2022-12-24T00:01:50.247Z,0.05
2022-12-24T00:04:19.455Z,1.35
2022-12-24T00:06:48.924Z,8.83
2022-12-24T00:09:18.195Z,0.10
2022-12-24T00:11:47.683Z,0.37
2022-12-24T00:14:16.894Z,0.85
2022-12-24T00:16:46.685Z,1.22
2022-12-24T00:19:16.313Z,0.20
2022-12-24T00:21:45.651Z,2.80
2022-12-24T00:24:15.001Z,2.27
2022-12-24T00:26:44.537Z,4.12
2022-12-24T00:29:14.366Z,6.67
2022-12-24T00:31:43.620Z,32.38
2022-12-24T00:34:12.843Z,28.77
2022-12-24T00:36:42.071Z,66.50
2022-12-24T00:39:11.259Z,58.17
2022-12-24T00:41:41.012Z,59.90
2022-12-24T00:44:10.578Z,62.03
2022-12-24T00:46:41.736Z,60.90
2022-12-24T00:49:13.178Z,55.55
2022-12-24T00:51:43.060Z,57.30
2022-12-24T00:54:12.328Z,60.08
2022-12-24T00:56:41.896Z,49.60
2022-12-24T00:59:11.136Z,52.20
2022-12-24T01:01:40.824Z,55.15
2022-12-24T01:04:28.095Z,49.73
2022-12-24T01:06:57.663Z,47.90
2022-12-24T01:09:26.904Z,48.87
2022-12-24T01:11:56.121Z,51.83
2022-12-24T01:14:25.425Z,50.17
2022-12-24T01:16:54.972Z,45.08
2022-12-24T01:19:24.264Z,56.48
2022-12-24T01:21:54.112Z,51.58
2022-12-24T01:24:23.325Z,53.33
2022-12-24T01:26:52.885Z,48.13
2022-12-24T01:29:22.175Z,46.55
2022-12-24T01:31:51.718Z,51.88
2022-12-24T01:34:20.955Z,55.78
2022-12-24T01:36:50.155Z,49.23
2022-12-24T01:39:19.449Z,57.33
2022-12-24T01:42:06.928Z,55.80
2022-12-24T01:44:39.096Z,49.27
2022-12-24T01:47:23.622Z,57.53
2022-12-24T01:49:55.339Z,62.20
2022-12-24T01:52:27.860Z,63.17
2022-12-24T01:57:31.008Z,49.67
2022-12-24T02:00:03.219Z,58.75
2022-12-24T02:02:34.176Z,63.50
2022-12-24T02:05:12.302Z,64.72
2022-12-24T02:07:43.057Z,59.70
2022-12-24T02:10:14.831Z,59.25
2022-12-24T02:12:45.332Z,65.92
2022-12-24T02:15:16.205Z,58.17
2022-12-24T02:17:48.600Z,56.13
2022-12-24T02:20:37.349Z,56.80
2022-12-24T02:23:26.589Z,63.13
2022-12-24T02:26:18.441Z,51.60
2022-12-24T02:29:12.521Z,53.60
2022-12-24T02:31:50.625Z,57.60
2022-12-24T02:34:26.120Z,60.23
2022-12-24T02:37:00.964Z,59.60
2022-12-24T02:39:42.272Z,62.65
2022-12-24T02:42:13.084Z,55.95
2022-12-24T02:44:55.927Z,62.80
2022-12-24T02:49:54.872Z,59.40
2022-12-24T02:52:36.334Z,59.25
2022-12-24T02:55:12.081Z,59.53
2022-12-24T02:57:56.435Z,61.00
2022-12-24T03:00:26.071Z,57.50
2022-12-24T03:03:22.333Z,55.00
2022-12-24T03:05:57.539Z,58.63
2022-12-24T03:08:36.035Z,53.48
2022-12-24T03:11:08.610Z,66.17
2022-12-24T03:16:09.926Z,57.65
2022-12-24T03:18:41.891Z,50.25
2022-12-24T03:21:32.034Z,44.40
2022-12-24T03:24:01.823Z,61.83
2022-12-24T03:26:33.397Z,58.23
2022-12-24T03:29:07.721Z,68.47
2022-12-24T03:31:49.326Z,57.05
2022-12-24T03:34:19.913Z,51.95
2022-12-24T03:36:49.851Z,52.90
2022-12-24T03:39:19.134Z,56.05
2022-12-24T03:41:49.219Z,55.90
2022-12-24T03:44:18.456Z,59.73
2022-12-24T03:46:48.162Z,54.48
2022-12-24T03:49:17.434Z,50.78
2022-12-24T03:51:47.156Z,52.55
2022-12-24T03:54:16.445Z,56.28
2022-12-24T03:56:45.681Z,46.10
2022-12-24T03:59:14.921Z,61.92
2022-12-24T04:01:44.561Z,51.88
2022-12-24T04:04:14.037Z,52.48
2022-12-24T04:06:43.872Z,47.27
2022-12-24T04:09:13.148Z,43.38
2022-12-24T04:11:42.593Z,49.95
2022-12-24T04:14:11.848Z,56.23
2022-12-24T04:16:41.115Z,44.63
2022-12-24T04:19:10.449Z,50.15
2022-12-24T04:21:39.923Z,57.90
2022-12-24T04:24:09.352Z,49.88
2022-12-24T04:26:38.564Z,58.78
2022-12-24T04:29:08.257Z,55.25
2022-12-24T04:31:37.853Z,45.73
2022-12-24T04:34:07.063Z,48.35
2022-12-24T04:36:36.927Z,46.18
2022-12-24T04:39:06.558Z,47.67
2022-12-24T04:41:36.248Z,55.52
2022-12-24T04:44:05.868Z,52.73
2022-12-24T04:46:35.991Z,50.95
2022-12-24T04:49:06.248Z,52.58
2022-12-24T04:51:36.006Z,47.62
2022-12-24T04:54:05.241Z,53.45
2022-12-24T04:56:34.803Z,57.73
2022-12-24T04:59:04.316Z,50.52
2022-12-24T05:01:34.400Z,60.08
2022-12-24T05:04:03.944Z,51.20
2022-12-24T05:06:33.804Z,55.10
2022-12-24T05:09:03.044Z,60.63
2022-12-24T05:11:32.232Z,59.85
2022-12-24T05:14:01.567Z,54.75
2022-12-24T05:16:30.816Z,55.43
2022-12-24T05:19:00.323Z,54.83
2022-12-24T05:21:29.539Z,58.45
2022-12-24T05:24:16.834Z,56.08
2022-12-24T05:26:51.248Z,50.45
2022-12-24T05:29:20.441Z,57.53
2022-12-24T05:31:50.368Z,59.42
2022-12-24T05:34:19.651Z,59.55
2022-12-24T05:36:49.007Z,55.28
2022-12-24T05:39:19.761Z,63.20
2022-12-24T05:41:49.403Z,48.98
2022-12-24T05:44:18.681Z,41.90
2022-12-24T05:46:48.369Z,51.65
2022-12-24T05:49:17.852Z,55.90
2022-12-24T05:51:47.064Z,50.03
2022-12-24T05:54:16.332Z,51.55
2022-12-24T05:56:45.579Z,50.25
2022-12-24T05:59:14.777Z,49.93
2022-12-24T06:01:46.184Z,57.38
2022-12-24T06:04:15.659Z,44.53
2022-12-24T06:06:45.307Z,44.93
2022-12-24T06:09:15.329Z,43.28
2022-12-24T06:11:45.106Z,54.23
2022-12-24T06:14:14.305Z,42.23
2022-12-24T06:16:43.538Z,44.40
2022-12-24T06:19:12.738Z,46.88
2022-12-24T06:21:42.326Z,51.30
2022-12-24T06:24:12.042Z,54.30
2022-12-24T06:26:41.393Z,45.03
2022-12-24T06:29:11.561Z,47.93
2022-12-24T06:31:41.086Z,41.35
2022-12-24T06:34:10.482Z,54.15
2022-12-24T06:36:39.699Z,41.50
2022-12-24T06:39:08.929Z,51.48
2022-12-24T06:41:38.781Z,45.52
2022-12-24T06:44:08.033Z,44.03
2022-12-24T06:46:37.555Z,42.73
2022-12-24T06:49:06.919Z,47.83
2022-12-24T06:51:36.150Z,51.28
2022-12-24T06:54:05.867Z,46.35
2022-12-24T06:56:35.493Z,38.98
2022-12-24T06:59:05.713Z,50.48
2022-12-24T07:01:35.236Z,48.25
2022-12-24T07:04:04.698Z,56.80
2022-12-24T07:06:34.073Z,52.33
2022-12-24T07:09:03.351Z,57.48
2022-12-24T07:11:32.912Z,54.25
2022-12-24T07:14:02.099Z,49.25
2022-12-24T07:16:31.640Z,48.63
2022-12-24T07:19:01.046Z,55.20
2022-12-24T07:21:30.298Z,46.28
2022-12-24T07:23:59.496Z,52.62
2022-12-24T07:26:28.800Z,51.23
2022-12-24T07:28:58.568Z,65.25
2022-12-24T07:31:27.863Z,51.65
2022-12-24T07:33:57.144Z,47.50
2022-12-24T07:36:28.190Z,47.58
2022-12-24T07:38:57.494Z,51.98
2022-12-24T07:41:27.383Z,59.00
2022-12-24T07:43:56.679Z,47.75
2022-12-24T07:46:25.957Z,51.83
2022-12-24T07:48:55.708Z,48.20
2022-12-24T07:51:25.044Z,53.10
2022-12-24T07:53:54.618Z,55.52
2022-12-24T07:56:25.927Z,49.63
2022-12-24T07:58:55.527Z,49.13
2022-12-24T08:01:24.824Z,45.92
2022-12-24T08:03:55.122Z,51.75
2022-12-24T08:06:24.744Z,50.60
2022-12-24T08:08:53.992Z,44.08
2022-12-24T08:11:23.300Z,43.20
2022-12-24T08:13:52.536Z,47.08
2022-12-24T08:16:21.957Z,49.80
2022-12-24T08:18:51.237Z,47.62
2022-12-24T08:21:20.481Z,41.83
2022-12-24T08:23:49.691Z,47.30
2022-12-24T08:26:19.077Z,41.80
2022-12-24T08:28:48.415Z,46.95
2022-12-24T08:31:17.914Z,54.95
2022-12-24T08:33:47.341Z,41.50
2022-12-24T08:36:16.902Z,46.95
2022-12-24T08:38:46.533Z,41.53
2022-12-24T08:41:16.118Z,51.10
2022-12-24T08:43:45.474Z,47.67
2022-12-24T08:46:15.130Z,47.03
2022-12-24T08:48:44.381Z,45.78
2022-12-24T08:51:13.941Z,41.35
2022-12-24T08:53:43.240Z,45.25
2022-12-24T08:56:13.165Z,46.65
2022-12-24T08:58:43.033Z,48.87
2022-12-24T09:01:18.087Z,50.17
2022-12-24T09:03:48.380Z,52.65
2022-12-24T09:06:17.864Z,51.83
2022-12-24T09:08:47.180Z,52.53
2022-12-24T09:11:18.225Z,37.60
2022-12-24T09:13:47.579Z,53.75
2022-12-24T09:16:16.866Z,49.30
2022-12-24T09:18:46.243Z,58.90
2022-12-24T09:21:18.629Z,52.17
2022-12-24T09:23:49.663Z,41.10
2022-12-24T09:26:24.484Z,46.83
2022-12-24T09:28:54.842Z,52.43
2022-12-24T09:31:24.740Z,46.55
2022-12-24T09:33:54.801Z,51.23
2022-12-24T09:36:24.289Z,50.08
2022-12-24T09:38:53.843Z,49.85
2022-12-24T09:41:47.708Z,56.95
2022-12-24T09:44:29.261Z,47.38
2022-12-24T09:47:00.621Z,39.13
2022-12-24T09:49:37.103Z,46.70
2022-12-24T09:52:09.312Z,50.78
2022-12-24T09:54:49.701Z,44.45
2022-12-24T09:57:33.673Z,49.83
2022-12-24T10:00:03.737Z,42.10
2022-12-24T10:02:35.305Z,50.27
2022-12-24T10:05:05.233Z,51.15
2022-12-24T10:07:50.556Z,46.98
2022-12-24T10:10:26.478Z,39.50
2022-12-24T10:13:11.474Z,43.70
2022-12-24T10:16:03.790Z,42.23
2022-12-24T10:18:49.327Z,47.90
2022-12-24T10:21:23.075Z,45.98
2022-12-24T10:24:10.964Z,44.13
2022-12-24T10:26:43.709Z,39.88
2022-12-24T10:29:31.487Z,43.52
2022-12-24T10:32:14.908Z,42.35
2022-12-24T10:35:06.961Z,50.80
2022-12-24T10:37:36.609Z,48.85
2022-12-24T10:40:06.832Z,49.88
2022-12-24T10:42:50.147Z,44.63
2022-12-24T10:45:18.803Z,44.45
2022-12-24T10:47:50.767Z,51.10
2022-12-24T10:50:35.738Z,50.43
2022-12-24T10:53:17.819Z,43.63
2022-12-24T10:55:49.463Z,47.20
2022-12-24T10:58:20.641Z,43.02
2022-12-24T11:00:53.953Z,36.63
2022-12-24T11:03:27.012Z,49.00
2022-12-24T11:06:08.463Z,42.60
2022-12-24T11:08:40.183Z,46.02
2022-12-24T11:11:12.319Z,40.50
2022-12-24T11:13:54.131Z,45.50
2022-12-24T11:16:31.970Z,47.17
2022-12-24T11:19:06.714Z,42.27
2022-12-24T11:21:38.892Z,41.90
2022-12-24T11:24:20.691Z,40.35
2022-12-24T11:26:50.027Z,41.48
2022-12-24T11:29:25.110Z,43.80
2022-12-24T11:32:06.352Z,44.98
2022-12-24T11:34:35.686Z,39.20
2022-12-24T11:37:15.108Z,40.40
2022-12-24T11:39:59.726Z,38.92
2022-12-24T11:42:34.800Z,36.23
2022-12-24T11:45:07.521Z,39.55
2022-12-24T11:47:40.437Z,43.87
2022-12-24T11:50:24.528Z,41.83
2022-12-24T11:53:08.858Z,47.43
2022-12-24T11:55:53.304Z,42.13
2022-12-24T11:58:45.691Z,42.03
2022-12-24T12:01:21.789Z,46.68
2022-12-24T12:03:54.689Z,39.67
2022-12-24T12:06:39.234Z,47.30
2022-12-24T12:09:14.551Z,41.53
2022-12-24T12:11:45.808Z,49.77
2022-12-24T12:14:18.549Z,42.27
2022-12-24T12:17:06.059Z,45.58
2022-12-24T12:19:38.611Z,51.55
2022-12-24T12:22:11.365Z,46.53
2022-12-24T12:24:44.036Z,51.50
2022-12-24T12:29:55.656Z,37.28
2022-12-24T12:32:28.106Z,44.05
2022-12-24T12:37:42.637Z,43.48
2022-12-24T12:40:17.404Z,43.95
2022-12-24T12:42:55.023Z,46.10
2022-12-24T12:45:47.231Z,44.00
2022-12-24T12:48:37.410Z,54.67
2022-12-24T12:51:25.359Z,49.20
2022-12-24T12:54:06.792Z,52.35
2022-12-24T12:56:37.576Z,41.45
2022-12-24T12:59:28.542Z,37.30
2022-12-24T13:02:17.661Z,36.85
2022-12-24T13:05:19.227Z,40.90
2022-12-24T13:08:14.523Z,42.80
2022-12-24T13:10:55.866Z,42.95
2022-12-24T13:13:54.030Z,42.33
2022-12-24T13:16:41.715Z,31.65
2022-12-24T13:19:23.257Z,39.42
2022-12-24T13:21:55.041Z,46.77
2022-12-24T13:24:26.286Z,42.33
2022-12-24T13:27:10.793Z,43.83
2022-12-24T13:30:09.735Z,44.35
2022-12-24T13:32:53.472Z,43.75
2022-12-24T13:35:26.120Z,47.60
2022-12-24T13:40:26.273Z,46.83
2022-12-24T13:43:05.690Z,39.15
2022-12-24T13:45:41.192Z,47.53
2022-12-24T13:48:14.084Z,52.27
2022-12-24T13:50:54.904Z,44.95
2022-12-24T13:53:33.638Z,52.98
2022-12-24T13:56:17.914Z,45.50
2022-12-24T13:58:52.149Z,45.38
2022-12-24T14:01:23.111Z,40.95
2022-12-24T14:03:55.074Z,45.65
2022-12-24T14:06:32.411Z,46.00
2022-12-24T14:09:15.631Z,38.38
2022-12-24T14:11:56.501Z,40.15
2022-12-24T14:14:31.624Z,41.37
2022-12-24T14:17:03.495Z,47.23
2022-12-24T14:19:53.875Z,42.58
2022-12-24T14:22:37.934Z,45.58
2022-12-24T14:25:19.912Z,40.23
2022-12-24T14:27:55.179Z,44.80
2022-12-24T14:30:26.788Z,36.17
2022-12-24T14:32:56.508Z,42.78
2022-12-24T14:35:31.845Z,44.10
2022-12-24T14:38:06.389Z,40.23
2022-12-24T14:40:38.996Z,52.73
2022-12-24T14:46:28.230Z,47.90
2022-12-24T14:48:59.122Z,45.03
2022-12-24T14:51:40.613Z,47.27
2022-12-24T14:54:16.422Z,44.98
2022-12-24T14:56:45.847Z,41.05
2022-12-24T14:59:21.000Z,36.73
2022-12-24T15:23:52.674Z,48.80
2022-12-24T15:26:35.326Z,54.93
2022-12-24T15:29:07.742Z,58.25
2022-12-24T15:31:37.274Z,48.25
2022-12-24T15:34:06.547Z,50.58
2022-12-24T15:36:37.108Z,59.42
2022-12-24T15:39:08.598Z,64.42
2022-12-24T15:42:01.114Z,50.28
2022-12-24T15:44:35.124Z,49.33
2022-12-24T15:47:07.451Z,53.52
2022-12-24T15:49:37.372Z,54.45
2022-12-24T15:52:09.757Z,62.25
2022-12-24T15:54:40.992Z,50.63
2022-12-24T15:57:17.064Z,58.28
2022-12-24T15:59:49.761Z,64.37
2022-12-24T16:02:39.029Z,57.78
2022-12-24T16:05:35.881Z,51.40
2022-12-24T16:08:17.178Z,62.10
2022-12-24T16:10:52.401Z,55.45
2022-12-24T16:13:24.319Z,60.23
2022-12-24T16:16:03.531Z,73.52
2022-12-24T16:18:35.413Z,82.22
2022-12-24T16:21:05.951Z,72.12
2022-12-24T16:23:49.605Z,77.40
2022-12-24T16:26:19.536Z,71.10
2022-12-24T16:28:49.451Z,60.40
2022-12-24T16:31:30.579Z,68.78
2022-12-24T16:34:01.621Z,71.85
2022-12-24T16:36:32.303Z,54.88
2022-12-24T16:39:19.848Z,55.30
2022-12-24T16:42:07.333Z,62.00
2022-12-24T16:44:37.424Z,50.28
2022-12-24T16:47:11.038Z,57.30
2022-12-24T16:49:40.449Z,67.85
2022-12-24T16:52:15.644Z,62.78
2022-12-24T16:54:44.882Z,73.90
2022-12-24T16:57:14.593Z,88.37
2022-12-24T16:59:43.988Z,89.28
2022-12-24T17:02:16.149Z,81.50
2022-12-24T17:04:45.647Z,82.40
2022-12-24T17:07:16.992Z,78.15
2022-12-24T17:09:46.349Z,80.70
2022-12-24T17:12:16.423Z,85.95
2022-12-24T17:14:45.658Z,72.97
2022-12-24T17:17:23.564Z,61.53
2022-12-24T17:19:52.860Z,60.63
2022-12-24T17:22:22.364Z,64.70
2022-12-24T17:24:51.742Z,71.00
2022-12-24T17:27:21.244Z,90.15
2022-12-24T17:29:51.015Z,104.00
2022-12-24T17:32:20.442Z,114.30
2022-12-24T17:34:49.909Z,109.25
2022-12-24T17:37:19.436Z,161.40
2022-12-24T17:39:48.783Z,120.25
2022-12-24T17:42:18.239Z,85.77
2022-12-24T17:44:47.860Z,76.87
2022-12-24T17:47:17.185Z,81.60
2022-12-24T17:49:46.727Z,90.38
2022-12-24T17:52:16.041Z,72.78
2022-12-24T17:54:45.381Z,73.37
2022-12-24T17:57:14.986Z,70.47
2022-12-24T17:59:44.195Z,94.80
2022-12-24T18:02:13.935Z,85.95
2022-12-24T18:04:43.637Z,78.45
2022-12-24T18:07:12.912Z,68.47
2022-12-24T18:09:46.434Z,74.60
2022-12-24T18:12:15.688Z,76.25
2022-12-24T18:14:44.986Z,79.20
2022-12-24T18:17:14.495Z,75.28
2022-12-24T18:19:44.105Z,69.17
2022-12-24T18:22:14.062Z,88.65
2022-12-24T18:24:43.824Z,74.75
2022-12-24T18:27:14.563Z,70.52
2022-12-24T18:29:44.180Z,68.55
2022-12-24T18:32:15.093Z,89.90
2022-12-24T18:34:44.812Z,98.30
2022-12-24T18:37:14.444Z,71.82
2022-12-24T18:39:44.938Z,89.03
2022-12-24T18:42:14.919Z,71.72
2022-12-24T18:44:46.251Z,76.70
2022-12-24T18:47:15.692Z,66.42
2022-12-24T18:49:45.260Z,72.87
2022-12-24T18:52:20.789Z,65.03
2022-12-24T18:54:50.485Z,71.10
2022-12-24T18:57:20.011Z,66.17
2022-12-24T18:59:49.571Z,73.17
2022-12-24T19:02:18.887Z,65.12
2022-12-24T19:04:48.206Z,76.95
2022-12-24T19:07:17.529Z,68.20
2022-12-24T19:09:48.603Z,75.25
2022-12-24T19:12:18.074Z,76.47
2022-12-24T19:14:47.682Z,78.25
2022-12-24T19:17:17.202Z,80.25
2022-12-24T19:19:46.465Z,83.33
2022-12-24T19:22:16.002Z,82.27
2022-12-24T19:24:45.531Z,80.32
2022-12-24T19:27:15.582Z,74.92
2022-12-24T19:29:45.290Z,62.23
2022-12-24T19:32:14.597Z,64.72
2022-12-24T19:34:43.999Z,65.92
2022-12-24T19:37:13.594Z,64.30
2022-12-24T19:39:43.354Z,73.95
2022-12-24T19:42:12.788Z,63.83
2022-12-24T19:44:42.393Z,63.05
2022-12-24T19:47:11.948Z,61.25
2022-12-24T19:49:41.633Z,70.80
2022-12-24T19:52:10.839Z,62.35
2022-12-24T19:54:40.339Z,68.17
2022-12-24T19:57:10.220Z,65.60
2022-12-24T19:59:39.965Z,67.87
2022-12-24T20:02:11.568Z,75.72
2022-12-24T20:04:41.462Z,71.50
2022-12-24T20:07:10.830Z,69.30
2022-12-24T20:09:40.800Z,68.22
2022-12-24T20:12:10.334Z,67.55
2022-12-24T20:14:39.941Z,67.82
2022-12-24T20:17:09.397Z,67.03
2022-12-24T20:19:39.238Z,68.92
2022-12-24T20:22:10.685Z,59.63
2022-12-24T20:24:40.556Z,67.17
2022-12-24T20:27:10.121Z,64.65
2022-12-24T20:29:39.968Z,56.15
2022-12-24T20:32:09.912Z,58.15
2022-12-24T20:34:39.521Z,61.00
2022-12-24T20:37:08.905Z,57.08
2022-12-24T20:39:38.418Z,61.13
2022-12-24T20:42:07.736Z,66.75
2022-12-24T20:44:37.284Z,62.95
2022-12-24T20:47:06.723Z,72.55
2022-12-24T20:49:36.177Z,64.67
2022-12-24T20:52:05.745Z,63.40
2022-12-24T20:54:35.614Z,54.95
2022-12-24T20:57:05.402Z,58.85
2022-12-24T20:59:34.968Z,58.17
2022-12-24T21:02:04.600Z,65.30
2022-12-24T21:04:34.011Z,58.50
2022-12-24T21:07:03.725Z,60.90
2022-12-24T21:09:33.442Z,59.30
2022-12-24T21:12:21.362Z,69.00
2022-12-24T21:14:50.734Z,60.80
2022-12-24T21:17:20.519Z,59.70
2022-12-24T21:19:49.938Z,61.85
2022-12-24T21:22:20.107Z,58.73
2022-12-24T21:24:49.336Z,62.70
2022-12-24T21:27:18.799Z,63.90
2022-12-24T21:29:48.222Z,70.55
2022-12-24T21:32:17.925Z,61.95
2022-12-24T21:34:47.414Z,68.55
2022-12-24T21:37:17.548Z,55.52
2022-12-24T21:39:47.999Z,57.70
2022-12-24T21:42:17.399Z,60.28
2022-12-24T21:44:46.865Z,68.30
2022-12-24T21:47:16.460Z,60.05
2022-12-24T21:50:03.361Z,64.67
2022-12-24T21:52:33.337Z,58.05
2022-12-24T21:55:02.674Z,64.10
2022-12-24T21:57:51.598Z,58.45
2022-12-24T22:00:25.755Z,56.53
2022-12-24T22:02:57.699Z,59.45
2022-12-24T22:05:27.879Z,58.58
2022-12-24T22:08:15.376Z,60.85
2022-12-24T22:11:02.932Z,61.75
2022-12-24T22:13:33.464Z,65.08
2022-12-24T22:16:02.668Z,63.17
2022-12-24T22:18:32.287Z,62.38
2022-12-24T22:21:03.239Z,62.33
2022-12-24T22:23:37.068Z,63.23
2022-12-24T22:26:12.260Z,61.65
2022-12-24T22:28:43.184Z,56.23
2022-12-24T22:31:20.200Z,63.92
2022-12-24T22:33:49.758Z,65.50
2022-12-24T22:36:21.463Z,61.48
2022-12-24T22:38:52.759Z,64.82
2022-12-24T22:41:22.582Z,62.73
2022-12-24T22:43:51.842Z,65.42
2022-12-24T22:46:21.460Z,66.17
2022-12-24T22:48:52.017Z,63.60
2022-12-24T22:51:22.431Z,58.23
2022-12-24T22:53:51.729Z,59.77
2022-12-24T22:56:23.086Z,49.33
2022-12-24T22:58:55.844Z,54.67
2022-12-24T23:01:39.315Z,56.65
2022-12-24T23:04:09.953Z,60.00
2022-12-24T23:06:39.779Z,54.98
2022-12-24T23:09:10.568Z,60.63
2022-12-24T23:11:41.448Z,62.10
2022-12-24T23:14:36.956Z,57.00
2022-12-24T23:17:06.698Z,58.30
2022-12-24T23:19:36.779Z,45.30
2022-12-24T23:22:06.702Z,61.00
2022-12-24T23:24:38.244Z,45.50
2022-12-24T23:27:07.820Z,49.13
2022-12-24T23:29:37.397Z,46.98
2022-12-24T23:32:06.650Z,55.45
2022-12-24T23:34:36.398Z,49.60
2022-12-24T23:37:05.692Z,47.45
2022-12-24T23:39:35.030Z,55.28
2022-12-24T23:42:04.298Z,47.00
2022-12-24T23:44:33.926Z,51.95
2022-12-24T23:47:03.631Z,45.67
2022-12-24T23:49:33.018Z,47.17
2022-12-24T23:52:02.721Z,44.45
2022-12-24T23:54:32.033Z,48.50
2022-12-24T23:57:01.261Z,38.53
2022-12-24T23:59:30.485Z,48.95
